« Back
NWS Peachtree City, Ga » Text Product » AHN Terminal Aerodrome Forecast


Printer-friendly Version
Current Version              Previous Versions:   1  2  3  4  5  6  7  8  9  

Terminal Aerodrome Forecast

469
FTUS42 KFFC 280526
TAFAHN
TAF
KAHN 280526Z 2806/2906 VRB04KT P6SM VCSH FEW035 SCT060 BKN100
     FM280800 VRB03KT 5SM BR FEW012 SCT025
     FM281030 VRB03KT 3SM BR SCT005 BKN012
     FM281400 36006KT P6SM SCT025 BKN040
      TEMPO 2815/2819 5SM TSRA BR BKN030CB
     FM281900 05008G17KT P6SM SCT040 BKN120
     FM290100 05004KT P6SM SCT070=

USA.gov is the U.S. government's official web portal to all federal, state and local government web resources and services.